createdAt,value
2019-01-06T00:02:14.758Z,9.78
2019-01-06T00:04:51.510Z,9.77
2019-01-06T00:07:38.968Z,9.76
2019-01-06T00:10:26.177Z,9.72
2019-01-06T00:12:59.891Z,9.70
2019-01-06T00:15:47.308Z,9.70
2019-01-06T00:18:33.593Z,9.69
2019-01-06T00:21:10.747Z,9.67
2019-01-06T00:24:19.164Z,9.69
2019-01-06T00:26:55.839Z,9.68
2019-01-06T00:29:46.009Z,9.69
2019-01-06T00:32:19.834Z,9.69
2019-01-06T00:34:50.844Z,9.69
2019-01-06T00:37:33.541Z,9.73
2019-01-06T00:40:10.512Z,9.71
2019-01-06T00:42:53.478Z,9.72
2019-01-06T00:45:30.440Z,9.72
2019-01-06T00:48:04.474Z,9.72
2019-01-06T00:50:44.253Z,9.73
2019-01-06T00:53:21.462Z,9.74
2019-01-06T00:55:58.018Z,9.73
2019-01-06T00:58:29.023Z,9.73
2019-01-06T01:01:14.735Z,9.77
2019-01-06T01:03:46.074Z,9.74
2019-01-06T01:06:19.487Z,9.77
2019-01-06T01:08:56.187Z,9.79
2019-01-06T01:11:32.618Z,9.77
2019-01-06T01:14:19.486Z,9.78
2019-01-06T01:16:53.175Z,9.77
2019-01-06T01:19:41.738Z,9.78
2019-01-06T01:22:31.190Z,9.75
2019-01-06T01:25:04.843Z,9.73
2019-01-06T01:27:41.358Z,9.73
2019-01-06T01:30:15.425Z,9.75
2019-01-06T01:32:58.114Z,9.76
2019-01-06T01:35:29.126Z,9.74
2019-01-06T01:38:00.140Z,9.75
2019-01-06T01:40:47.345Z,9.76
2019-01-06T01:43:18.356Z,9.75
2019-01-06T01:45:57.950Z,9.77
2019-01-06T01:48:45.428Z,9.75
2019-01-06T01:51:22.740Z,9.73
2019-01-06T01:53:59.435Z,9.73
2019-01-06T01:56:33.111Z,9.73
2019-01-06T01:59:10.637Z,9.73
2019-01-06T02:01:56.552Z,9.71
2019-01-06T02:04:40.630Z,9.71
2019-01-06T02:07:11.644Z,9.69
2019-01-06T02:09:42.652Z,9.71
2019-01-06T02:12:14.047Z,9.73
2019-01-06T02:15:07.339Z,9.75
2019-01-06T02:17:44.492Z,9.74
2019-01-06T02:20:15.581Z,9.73
2019-01-06T02:23:02.419Z,9.71
2019-01-06T02:25:49.345Z,9.67
2019-01-06T02:28:20.589Z,9.63
2019-01-06T02:30:51.612Z,9.63
2019-01-06T02:33:31.673Z,9.66
2019-01-06T02:36:02.688Z,9.64
2019-01-06T02:38:36.556Z,9.63
2019-01-06T02:41:07.569Z,9.61
2019-01-06T02:43:41.547Z,9.61
2019-01-06T02:46:28.846Z,9.60
2019-01-06T02:48:59.841Z,9.56
2019-01-06T02:51:36.354Z,9.54
2019-01-06T02:54:07.373Z,9.53
2019-01-06T02:56:44.118Z,9.53
2019-01-06T02:59:15.142Z,9.54
2019-01-06T03:01:52.456Z,9.54
2019-01-06T03:04:39.625Z,9.54
2019-01-06T03:07:19.651Z,9.51
2019-01-06T03:10:02.170Z,9.50
2019-01-06T03:12:49.411Z,9.48
2019-01-06T03:15:36.305Z,9.44
2019-01-06T03:18:23.267Z,9.41
2019-01-06T03:20:57.025Z,9.39
2019-01-06T03:23:43.035Z,9.39
2019-01-06T03:26:22.792Z,9.39
2019-01-06T03:28:56.860Z,9.38
2019-01-06T03:31:30.888Z,9.38
2019-01-06T03:34:19.916Z,9.39
2019-01-06T03:36:53.914Z,9.40
2019-01-06T03:39:27.643Z,9.37
2019-01-06T03:42:15.606Z,9.38
2019-01-06T03:44:46.622Z,9.32
2019-01-06T03:47:20.504Z,9.35
2019-01-06T03:50:07.420Z,9.35
2019-01-06T03:52:44.093Z,9.34
2019-01-06T03:55:27.125Z,9.32
2019-01-06T03:58:00.978Z,9.32
2019-01-06T04:00:47.966Z,9.33
2019-01-06T04:03:24.765Z,9.30
2019-01-06T04:05:58.282Z,9.30
2019-01-06T04:08:41.286Z,9.30
2019-01-06T04:11:18.025Z,9.30
2019-01-06T04:13:51.689Z,9.30
2019-01-06T04:16:28.465Z,9.30
2019-01-06T04:19:18.025Z,9.30
2019-01-06T04:22:07.110Z,9.28
2019-01-06T04:24:40.897Z,9.27
2019-01-06T04:27:23.834Z,9.28
2019-01-06T04:29:55.124Z,9.27
2019-01-06T04:32:35.186Z,9.28
2019-01-06T04:35:22.420Z,9.27
2019-01-06T04:38:09.475Z,9.28
2019-01-06T04:40:43.365Z,9.27
2019-01-06T04:43:14.780Z,9.26
2019-01-06T04:45:54.823Z,9.31
2019-01-06T04:48:31.953Z,9.30
2019-01-06T04:51:05.357Z,9.30
2019-01-06T04:53:45.533Z,9.30
2019-01-06T04:56:19.388Z,9.30
2019-01-06T04:59:06.499Z,9.32
2019-01-06T05:01:52.522Z,9.33
2019-01-06T05:04:23.556Z,9.34
2019-01-06T05:07:10.910Z,9.37
2019-01-06T05:10:00.086Z,9.36
2019-01-06T05:12:48.987Z,9.34
2019-01-06T05:15:28.631Z,9.31
2019-01-06T05:17:59.899Z,9.31
2019-01-06T05:20:34.134Z,9.33
2019-01-06T05:23:07.555Z,9.35
2019-01-06T05:25:54.619Z,9.37
2019-01-06T05:28:43.403Z,9.35
2019-01-06T05:31:14.421Z,9.34
2019-01-06T05:34:03.754Z,9.36
2019-01-06T05:36:46.543Z,9.35
2019-01-06T05:39:17.867Z,9.32
2019-01-06T05:42:00.944Z,9.35
2019-01-06T05:44:31.949Z,9.35
2019-01-06T05:47:08.657Z,9.37
2019-01-06T05:49:45.588Z,9.37
2019-01-06T05:52:33.136Z,9.37
2019-01-06T05:55:20.027Z,9.36
2019-01-06T05:57:56.737Z,9.35
2019-01-06T06:00:30.731Z,9.34
2019-01-06T06:03:20.005Z,9.36
2019-01-06T06:05:51.015Z,9.36
2019-01-06T06:08:31.133Z,9.38
2019-01-06T06:11:11.051Z,9.38
2019-01-06T06:13:47.834Z,9.36
2019-01-06T06:16:36.918Z,9.36
2019-01-06T06:19:08.000Z,9.31
2019-01-06T06:21:55.078Z,9.31
2019-01-06T06:24:42.566Z,9.30
2019-01-06T06:27:13.572Z,9.29
2019-01-06T06:29:47.251Z,9.32
2019-01-06T06:32:23.973Z,9.34
2019-01-06T06:35:03.705Z,9.37
2019-01-06T06:37:44.016Z,9.36
2019-01-06T06:40:20.780Z,9.35
2019-01-06T06:42:54.566Z,9.36
2019-01-06T06:45:28.391Z,9.36
2019-01-06T06:48:17.544Z,9.37
2019-01-06T06:51:12.239Z,9.33
2019-01-06T06:53:43.267Z,9.31
2019-01-06T06:56:16.927Z,9.32
2019-01-06T06:58:50.424Z,9.32
2019-01-06T07:01:35.022Z,9.35
2019-01-06T07:04:11.592Z,9.31
2019-01-06T07:06:45.682Z,9.28
2019-01-06T07:09:32.827Z,9.27
2019-01-06T07:12:12.921Z,9.25
2019-01-06T07:14:43.935Z,9.22
2019-01-06T07:17:47.858Z,9.23
2019-01-06T07:20:42.820Z,9.17
2019-01-06T07:23:13.833Z,9.14
2019-01-06T07:25:54.145Z,9.15
2019-01-06T07:28:30.890Z,9.16
2019-01-06T07:31:01.917Z,9.15
2019-01-06T07:33:48.795Z,9.20
2019-01-06T07:36:25.509Z,9.18
2019-01-06T07:39:11.315Z,9.18
2019-01-06T07:42:00.271Z,9.16
2019-01-06T07:44:47.407Z,9.14
2019-01-06T07:47:34.613Z,9.12
2019-01-06T07:50:06.428Z,9.12
2019-01-06T07:52:37.447Z,9.14
2019-01-06T07:55:23.726Z,9.19
2019-01-06T07:57:54.735Z,9.21
2019-01-06T08:00:34.982Z,9.23
2019-01-06T08:03:06.011Z,9.25
2019-01-06T08:05:45.977Z,9.28
2019-01-06T08:08:22.763Z,9.27
2019-01-06T08:11:02.231Z,9.30
2019-01-06T08:13:45.171Z,9.30
2019-01-06T08:16:16.183Z,9.29
2019-01-06T08:18:47.212Z,9.31
2019-01-06T08:21:35.711Z,9.34
2019-01-06T08:24:09.620Z,9.34
2019-01-06T08:26:55.889Z,9.37
2019-01-06T08:29:42.773Z,9.37
2019-01-06T08:32:29.769Z,9.38
2019-01-06T08:35:03.531Z,9.37
2019-01-06T08:37:51.164Z,9.43
2019-01-06T08:40:22.170Z,9.45
2019-01-06T08:43:08.492Z,9.48
2019-01-06T08:45:48.597Z,9.54
2019-01-06T08:48:36.192Z,9.56
2019-01-06T08:51:12.743Z,9.57
2019-01-06T08:53:58.563Z,9.63
2019-01-06T08:56:45.749Z,9.67
2019-01-06T08:59:22.829Z,9.68
2019-01-06T09:02:05.668Z,9.73
2019-01-06T09:04:42.629Z,9.75
2019-01-06T09:07:30.053Z,9.76
2019-01-06T09:10:06.540Z,9.77
2019-01-06T09:12:53.759Z,9.77
2019-01-06T09:15:41.061Z,9.76
2019-01-06T09:18:14.736Z,9.77
2019-01-06T09:20:51.900Z,9.76
2019-01-06T09:23:39.570Z,9.78
2019-01-06T09:26:26.625Z,9.74
2019-01-06T09:28:57.954Z,9.73
2019-01-06T09:31:41.815Z,9.74
2019-01-06T09:34:21.594Z,9.78
2019-01-06T09:37:07.402Z,9.83
2019-01-06T09:39:54.661Z,9.84
2019-01-06T09:42:43.685Z,9.84
2019-01-06T09:45:14.707Z,9.88
2019-01-06T09:47:57.509Z,9.92
2019-01-06T09:50:43.511Z,9.97
2019-01-06T09:53:17.350Z,9.96
2019-01-06T09:55:48.368Z,9.99
2019-01-06T09:58:31.582Z,10.02
2019-01-06T10:01:05.552Z,10.04
2019-01-06T10:03:54.970Z,10.06
2019-01-06T10:06:42.927Z,10.04
2019-01-06T10:09:30.256Z,10.06
2019-01-06T10:12:17.354Z,10.05
2019-01-06T10:15:03.438Z,10.05
2019-01-06T10:17:50.780Z,10.04
2019-01-06T10:20:21.815Z,10.05
2019-01-06T10:22:52.832Z,10.07
2019-01-06T10:25:29.780Z,10.11
2019-01-06T10:28:16.819Z,10.14
2019-01-06T10:31:05.242Z,10.16
2019-01-06T10:33:51.353Z,10.17
2019-01-06T10:36:24.932Z,10.23
2019-01-06T10:39:01.788Z,10.29
2019-01-06T10:41:35.806Z,10.35
2019-01-06T10:44:22.744Z,10.39
2019-01-06T10:46:59.453Z,10.43
2019-01-06T10:49:36.153Z,10.50
2019-01-06T10:52:07.188Z,10.54
2019-01-06T10:54:40.894Z,10.58
2019-01-06T10:57:14.400Z,10.60
2019-01-06T11:00:01.355Z,10.61
2019-01-06T11:02:41.053Z,10.61
2019-01-06T11:05:14.774Z,10.61
2019-01-06T11:07:55.299Z,10.59
2019-01-06T11:10:32.014Z,10.57
2019-01-06T11:13:08.919Z,10.57
2019-01-06T11:15:55.114Z,10.59
2019-01-06T11:18:42.353Z,10.59
2019-01-06T11:21:13.364Z,10.62
2019-01-06T11:23:44.384Z,10.63
2019-01-06T11:26:18.030Z,10.66
2019-01-06T11:28:54.728Z,10.74
2019-01-06T11:31:43.781Z,10.77
2019-01-06T11:34:23.382Z,10.79
2019-01-06T11:36:57.211Z,10.83
2019-01-06T11:39:37.040Z,10.88
2019-01-06T11:42:17.061Z,10.91
2019-01-06T11:44:50.747Z,10.89
2019-01-06T11:47:27.474Z,10.90
2019-01-06T11:50:04.144Z,10.89
2019-01-06T11:52:37.569Z,10.84
2019-01-06T11:55:24.002Z,10.83
2019-01-06T11:58:01.170Z,10.79
2019-01-06T12:00:46.690Z,10.81
2019-01-06T12:03:20.301Z,10.83
2019-01-06T12:05:55.215Z,10.87
2019-01-06T12:08:31.727Z,10.92
2019-01-06T12:11:11.563Z,10.97
2019-01-06T12:13:42.636Z,10.98
2019-01-06T12:16:13.706Z,10.98
2019-01-06T12:18:47.589Z,10.99
2019-01-06T12:21:18.625Z,11.00
2019-01-06T12:24:03.755Z,11.03
2019-01-06T12:26:51.196Z,11.04
2019-01-06T12:29:25.019Z,11.02
2019-01-06T12:32:12.527Z,11.04
2019-01-06T12:34:43.721Z,11.02
2019-01-06T12:37:23.403Z,11.03
2019-01-06T12:39:54.434Z,11.01
2019-01-06T12:42:40.031Z,11.00
2019-01-06T12:45:23.185Z,11.01
2019-01-06T12:48:00.062Z,10.99
2019-01-06T12:50:46.786Z,10.99
2019-01-06T12:53:38.867Z,10.95
2019-01-06T12:56:05.546Z,10.94
2019-01-06T12:58:36.589Z,10.94
2019-01-06T13:01:23.538Z,10.93
2019-01-06T13:04:00.296Z,10.95
2019-01-06T13:06:47.209Z,10.96
2019-01-06T13:09:36.336Z,10.98
2019-01-06T13:12:13.015Z,10.95
2019-01-06T13:14:46.943Z,10.91
2019-01-06T13:17:24.012Z,10.92
2019-01-06T13:19:57.579Z,10.92
2019-01-06T13:22:44.754Z,10.92
2019-01-06T13:25:18.461Z,10.91
2019-01-06T13:27:49.792Z,10.91
2019-01-06T13:30:23.339Z,10.94
2019-01-06T13:33:10.020Z,10.94
2019-01-06T13:35:57.093Z,10.94
2019-01-06T13:38:42.642Z,10.90
2019-01-06T13:41:19.720Z,10.89
2019-01-06T13:44:01.205Z,10.85
2019-01-06T13:46:32.218Z,10.83
2019-01-06T13:49:06.024Z,10.84
2019-01-06T13:51:37.280Z,10.84
2019-01-06T13:54:14.376Z,10.86
2019-01-06T13:56:53.895Z,10.88
2019-01-06T13:59:30.312Z,10.91
2019-01-06T14:02:10.125Z,10.92
2019-01-06T14:04:57.441Z,10.94
2019-01-06T14:07:31.108Z,10.93
2019-01-06T14:10:02.379Z,10.91
2019-01-06T14:12:33.614Z,10.90
2019-01-06T14:15:04.939Z,10.90
2019-01-06T14:17:39.011Z,10.87
2019-01-06T14:20:25.736Z,10.86
2019-01-06T14:23:05.547Z,10.84
2019-01-06T14:25:52.498Z,10.82
2019-01-06T14:28:39.470Z,10.80
2019-01-06T14:31:16.156Z,10.73
2019-01-06T14:33:47.160Z,10.68
2019-01-06T14:36:29.682Z,10.64
2019-01-06T14:39:10.812Z,10.55
2019-01-06T14:41:48.048Z,10.48
2019-01-06T14:44:22.041Z,10.41
2019-01-06T14:47:10.769Z,10.32
2019-01-06T14:49:44.537Z,10.20
2019-01-06T14:52:31.864Z,10.11
2019-01-06T14:55:18.944Z,10.02
2019-01-06T14:57:58.763Z,9.91
2019-01-06T15:00:38.785Z,9.84
2019-01-06T15:03:15.859Z,9.81
2019-01-06T15:06:02.969Z,9.78
2019-01-06T15:08:51.833Z,9.75
2019-01-06T15:11:22.847Z,9.75
2019-01-06T15:14:05.839Z,9.77
2019-01-06T15:16:39.630Z,9.77
2019-01-06T15:19:27.264Z,9.78
2019-01-06T15:21:58.279Z,9.79
2019-01-06T15:24:41.105Z,9.78
2019-01-06T15:27:26.972Z,9.79
2019-01-06T15:29:58.057Z,9.79
2019-01-06T15:32:40.883Z,9.82
2019-01-06T15:35:20.353Z,9.83
2019-01-06T15:37:53.855Z,9.82
2019-01-06T15:40:39.678Z,9.83
2019-01-06T15:43:16.142Z,9.83
2019-01-06T15:45:47.419Z,9.84
2019-01-06T15:48:21.102Z,9.85
2019-01-06T15:50:59.095Z,9.87
2019-01-06T15:53:38.615Z,9.89
2019-01-06T15:56:12.380Z,9.90
2019-01-06T15:58:49.256Z,9.90
2019-01-06T16:01:23.034Z,9.90
2019-01-06T16:04:09.940Z,9.90
2019-01-06T16:06:43.513Z,9.87
2019-01-06T16:09:32.168Z,9.88
2019-01-06T16:12:06.199Z,9.86
2019-01-06T16:14:53.270Z,9.85
2019-01-06T16:17:39.916Z,9.84
2019-01-06T16:20:23.147Z,9.83
2019-01-06T16:22:54.171Z,9.83
2019-01-06T16:25:25.225Z,9.84
2019-01-06T16:28:12.422Z,9.83
2019-01-06T16:31:20.878Z,9.83
2019-01-06T16:33:58.391Z,9.78
2019-01-06T16:36:46.016Z,9.79
2019-01-06T16:39:20.670Z,9.76
2019-01-06T16:44:21.617Z,9.79
2019-01-06T16:47:08.421Z,9.78
2019-01-06T16:49:55.711Z,9.75
2019-01-06T16:52:26.973Z,9.75
2019-01-06T16:55:03.506Z,9.76
2019-01-06T16:57:37.492Z,9.76
2019-01-06T17:00:22.235Z,9.77
2019-01-06T17:02:59.241Z,9.75
2019-01-06T17:05:32.970Z,9.75
2019-01-06T17:08:10.085Z,9.76
2019-01-06T17:10:57.300Z,9.76
2019-01-06T17:13:44.545Z,9.75
2019-01-06T17:16:17.969Z,9.76
2019-01-06T17:18:51.389Z,9.75
2019-01-06T17:21:28.433Z,9.76
2019-01-06T17:23:59.457Z,9.76
2019-01-06T17:26:46.651Z,9.74
2019-01-06T17:29:29.743Z,9.73
2019-01-06T17:32:06.582Z,9.70
2019-01-06T17:34:54.071Z,9.70
2019-01-06T17:37:27.510Z,9.67
2019-01-06T17:40:15.048Z,9.67
2019-01-06T17:42:58.195Z,9.63
2019-01-06T17:45:41.511Z,9.63
2019-01-06T17:48:18.257Z,9.61
2019-01-06T17:50:51.783Z,9.60
2019-01-06T17:53:39.254Z,9.58
2019-01-06T17:56:13.266Z,9.54
2019-01-06T17:58:53.235Z,9.53
2019-01-06T18:01:39.063Z,9.51
2019-01-06T18:04:10.082Z,9.48
2019-01-06T18:06:47.088Z,9.49
2019-01-06T18:09:18.112Z,9.51
2019-01-06T18:11:49.485Z,9.53
2019-01-06T18:14:35.294Z,9.54
2019-01-06T18:17:09.576Z,9.53
2019-01-06T18:19:46.644Z,9.53
2019-01-06T18:22:22.175Z,9.50
2019-01-06T18:25:02.478Z,9.50
2019-01-06T18:27:48.585Z,9.50
2019-01-06T18:30:40.264Z,9.48
2019-01-06T18:33:27.886Z,9.48
2019-01-06T18:36:22.528Z,9.46
2019-01-06T18:39:08.790Z,9.44
2019-01-06T18:41:42.363Z,9.43
2019-01-06T18:44:32.783Z,9.44
2019-01-06T18:47:20.071Z,9.42
2019-01-06T18:49:51.146Z,9.40
2019-01-06T18:52:37.299Z,9.42
2019-01-06T18:55:25.565Z,9.39
2019-01-06T18:58:08.222Z,9.38
2019-01-06T19:00:51.441Z,9.39
2019-01-06T19:03:22.755Z,9.37
2019-01-06T19:06:06.708Z,9.39
2019-01-06T19:11:24.947Z,9.41
2019-01-06T19:14:08.015Z,9.41
2019-01-06T19:16:43.440Z,9.41
2019-01-06T19:19:17.569Z,9.40
2019-01-06T19:21:48.587Z,9.42
2019-01-06T19:24:31.837Z,9.42
2019-01-06T19:27:05.313Z,9.39
2019-01-06T19:29:36.321Z,9.39
2019-01-06T19:32:07.700Z,9.39
2019-01-06T19:34:57.219Z,9.39
2019-01-06T19:37:30.663Z,9.37
2019-01-06T19:40:01.668Z,9.35
2019-01-06T19:42:48.847Z,9.36
2019-01-06T19:45:25.695Z,9.34
2019-01-06T19:48:02.533Z,9.33
2019-01-06T19:50:36.406Z,9.32
2019-01-06T19:53:23.722Z,9.33
2019-01-06T19:56:06.459Z,9.31
2019-01-06T19:58:43.582Z,9.32
2019-01-06T20:01:23.676Z,9.33
2019-01-06T20:03:54.686Z,9.33
2019-01-06T20:06:41.695Z,9.34
2019-01-06T20:09:15.604Z,9.34
2019-01-06T20:12:04.823Z,9.35
2019-01-06T20:14:41.816Z,9.32
2019-01-06T20:17:28.107Z,9.33
2019-01-06T20:19:59.129Z,9.30
2019-01-06T20:22:33.242Z,9.33
2019-01-06T20:25:10.226Z,9.33
2019-01-06T20:27:50.201Z,9.31
2019-01-06T20:30:27.426Z,9.33
2019-01-06T20:32:58.449Z,9.32
2019-01-06T20:35:45.438Z,9.32
2019-01-06T20:38:16.449Z,9.31
2019-01-06T20:40:56.645Z,9.31
2019-01-06T20:43:41.029Z,9.31
2019-01-06T20:46:17.944Z,9.31
2019-01-06T20:49:05.059Z,9.33
2019-01-06T20:51:45.197Z,9.30
2019-01-06T20:54:38.027Z,9.30
2019-01-06T20:57:09.636Z,9.27
2019-01-06T20:59:50.989Z,9.29
2019-01-06T21:02:30.798Z,9.29
2019-01-06T21:05:11.955Z,9.29
2019-01-06T21:07:56.861Z,9.31
2019-01-06T21:10:27.957Z,9.28
2019-01-06T21:13:17.408Z,9.27
2019-01-06T21:15:48.869Z,9.26
2019-01-06T21:18:31.517Z,9.25
2019-01-06T21:21:18.465Z,9.24
2019-01-06T21:24:06.259Z,9.22
2019-01-06T21:26:43.803Z,9.20
2019-01-06T21:29:14.988Z,9.21
2019-01-06T21:31:46.477Z,9.22
2019-01-06T21:34:20.814Z,9.21
2019-01-06T21:37:08.929Z,9.23
2019-01-06T21:39:53.375Z,9.19
2019-01-06T21:42:25.210Z,9.15
2019-01-06T21:44:57.410Z,9.15
2019-01-06T21:47:45.245Z,9.19
2019-01-06T21:50:34.368Z,9.18
2019-01-06T21:53:05.393Z,9.18
2019-01-06T21:55:54.648Z,9.18
2019-01-06T21:58:35.065Z,9.19
2019-01-06T22:01:22.739Z,9.19
2019-01-06T22:03:55.666Z,9.22
2019-01-06T22:06:43.646Z,9.24
2019-01-06T22:09:26.306Z,9.26
2019-01-06T22:12:03.202Z,9.28
2019-01-06T22:14:38.769Z,9.28
2019-01-06T22:17:15.281Z,9.29
2019-01-06T22:19:53.832Z,9.30
2019-01-06T22:22:32.143Z,9.30
2019-01-06T22:25:21.149Z,9.29
2019-01-06T22:27:58.241Z,9.28
2019-01-06T22:30:34.939Z,9.26
2019-01-06T22:33:14.780Z,9.26
2019-01-06T22:35:48.702Z,9.26
2019-01-06T22:38:31.495Z,9.26
2019-01-06T22:41:17.719Z,9.23
2019-01-06T22:43:58.222Z,9.21
2019-01-06T22:46:29.629Z,9.18
2019-01-06T22:49:00.767Z,9.16
2019-01-06T22:51:40.637Z,9.19
2019-01-06T22:54:14.610Z,9.15
2019-01-06T22:57:03.594Z,9.14
2019-01-06T22:59:53.753Z,9.10
2019-01-06T23:02:40.529Z,9.06
2019-01-06T23:05:22.227Z,9.03
2019-01-06T23:08:01.073Z,9.03
2019-01-06T23:10:37.815Z,9.02
2019-01-06T23:13:18.286Z,9.01
2019-01-06T23:16:05.253Z,8.99
2019-01-06T23:18:43.221Z,8.97
2019-01-06T23:21:17.004Z,8.98
2019-01-06T23:24:04.615Z,8.98
2019-01-06T23:26:35.701Z,8.97
2019-01-06T23:29:23.746Z,8.97
2019-01-06T23:31:57.461Z,8.96
2019-01-06T23:34:44.758Z,8.97
2019-01-06T23:37:24.727Z,8.96
2019-01-06T23:40:12.189Z,8.94
2019-01-06T23:42:59.591Z,8.92
2019-01-06T23:45:39.339Z,8.91
2019-01-06T23:48:16.771Z,8.92
2019-01-06T23:51:00.684Z,8.89
2019-01-06T23:53:34.513Z,8.89
2019-01-06T23:56:24.232Z,8.87
2019-01-06T23:59:01.323Z,8.89
